createdAt,value
2022-11-28T00:01:36.026Z,8.35
2022-11-28T00:04:03.950Z,9.05
2022-11-28T00:06:30.651Z,7.70
2022-11-28T00:09:00.827Z,10.38
2022-11-28T00:11:27.377Z,9.40
2022-11-28T00:13:54.246Z,10.65
2022-11-28T00:16:22.023Z,9.45
2022-11-28T00:18:49.936Z,10.27
2022-11-28T00:21:17.326Z,8.23
2022-11-28T00:23:46.010Z,14.57
2022-11-28T00:26:40.172Z,12.02
2022-11-28T00:29:08.868Z,10.23
2022-11-28T00:31:42.337Z,9.38
2022-11-28T00:34:11.376Z,8.50
2022-11-28T00:36:37.847Z,10.77
2022-11-28T00:39:05.053Z,8.23
2022-11-28T00:41:35.077Z,11.10
2022-11-28T00:44:01.489Z,8.75
2022-11-28T00:46:28.315Z,10.45
2022-11-28T00:48:54.726Z,11.80
2022-11-28T00:51:26.033Z,9.68
2022-11-28T00:53:53.970Z,9.98
2022-11-28T00:56:24.356Z,10.15
2022-11-28T00:58:51.383Z,9.40
2022-11-28T01:01:21.535Z,11.02
2022-11-28T01:03:49.305Z,9.50
2022-11-28T01:06:22.149Z,12.40
2022-11-28T01:08:48.580Z,10.77
2022-11-28T01:11:15.017Z,9.90
2022-11-28T01:13:41.391Z,9.68
2022-11-28T01:16:09.055Z,9.45
2022-11-28T01:18:36.468Z,9.85
2022-11-28T01:21:03.154Z,10.35
2022-11-28T01:23:29.572Z,10.43
2022-11-28T01:25:55.999Z,9.18
2022-11-28T01:28:22.428Z,11.05
2022-11-28T01:30:49.180Z,8.95
2022-11-28T01:33:15.580Z,10.85
2022-11-28T01:35:41.964Z,9.45
2022-11-28T01:38:08.371Z,11.07
2022-11-28T01:40:34.812Z,9.70
2022-11-28T01:43:01.209Z,10.88
2022-11-28T01:45:31.239Z,9.07
2022-11-28T01:48:01.933Z,12.88
2022-11-28T01:50:30.734Z,9.75
2022-11-28T01:53:01.904Z,9.77
2022-11-28T01:55:33.832Z,11.68
2022-11-28T01:58:00.319Z,10.07
2022-11-28T02:00:28.271Z,11.55
2022-11-28T02:03:00.550Z,9.35
2022-11-28T02:05:27.016Z,11.93
2022-11-28T02:07:53.806Z,9.40
2022-11-28T02:10:26.854Z,9.95
2022-11-28T02:13:03.008Z,10.65
2022-11-28T02:15:37.557Z,9.88
2022-11-28T02:18:20.616Z,11.05
2022-11-28T02:21:24.161Z,9.48
2022-11-28T02:24:27.928Z,9.43
2022-11-28T02:27:07.978Z,10.18
2022-11-28T02:29:34.303Z,9.85
2022-11-28T02:32:26.981Z,11.30
2022-11-28T02:35:12.352Z,10.00
2022-11-28T02:38:16.428Z,10.32
2022-11-28T02:40:55.180Z,12.38
2022-11-28T02:43:50.610Z,11.55
2022-11-28T02:46:21.685Z,10.05
2022-11-28T02:48:59.689Z,10.43
2022-11-28T02:51:33.053Z,10.35
2022-11-28T02:54:03.052Z,11.20
2022-11-28T02:56:29.522Z,10.75
2022-11-28T02:58:55.969Z,11.57
2022-11-28T03:01:36.187Z,11.23
2022-11-28T03:04:25.811Z,10.57
2022-11-28T03:07:18.605Z,12.95
2022-11-28T03:10:30.512Z,11.02
2022-11-28T03:13:33.177Z,14.05
2022-11-28T03:16:08.845Z,14.05
2022-11-28T03:18:40.033Z,10.25
2022-11-28T03:21:16.667Z,11.30
2022-11-28T03:23:48.810Z,9.43
2022-11-28T03:26:33.411Z,13.82
2022-11-28T03:29:02.794Z,12.65
2022-11-28T03:31:47.703Z,10.27
2022-11-28T03:34:19.310Z,10.52
2022-11-28T03:37:01.087Z,11.98
2022-11-28T03:39:36.121Z,10.82
2022-11-28T03:42:10.006Z,12.90
2022-11-28T03:44:44.144Z,11.95
2022-11-28T03:47:10.866Z,12.35
2022-11-28T03:49:41.336Z,12.73
2022-11-28T03:54:47.706Z,11.55
2022-11-28T03:57:26.167Z,13.00
2022-11-28T03:59:55.163Z,13.65
2022-11-28T04:02:36.676Z,11.23
2022-11-28T04:05:24.682Z,11.00
2022-11-28T04:07:57.883Z,12.63
2022-11-28T04:10:24.416Z,11.77
2022-11-28T04:12:59.224Z,11.35
2022-11-28T04:15:45.174Z,11.38
2022-11-28T04:18:21.564Z,12.00
2022-11-28T04:21:06.087Z,11.57
2022-11-28T04:23:34.204Z,11.48
2022-11-28T04:26:12.554Z,11.90
2022-11-28T04:28:41.071Z,11.07
2022-11-28T04:31:09.183Z,11.90
2022-11-28T04:33:40.773Z,11.32
2022-11-28T04:36:10.310Z,13.90
2022-11-28T04:38:39.409Z,11.40
2022-11-28T04:41:14.047Z,12.45
2022-11-28T04:43:57.278Z,13.27
2022-11-28T04:46:35.064Z,12.57
2022-11-28T04:49:01.712Z,12.40
2022-11-28T04:51:50.597Z,12.20
2022-11-28T04:54:25.082Z,12.48
2022-11-28T04:56:59.634Z,15.20
2022-11-28T04:59:28.321Z,12.50
2022-11-28T05:01:58.231Z,11.60
2022-11-28T05:04:25.078Z,12.32
2022-11-28T05:07:01.348Z,13.23
2022-11-28T05:09:27.736Z,13.45
2022-11-28T05:11:54.085Z,12.65
2022-11-28T05:14:20.587Z,12.68
2022-11-28T05:16:47.216Z,12.80
2022-11-28T05:19:13.638Z,11.43
2022-11-28T05:21:39.984Z,13.32
2022-11-28T05:24:07.320Z,12.68
2022-11-28T05:26:35.338Z,11.77
2022-11-28T05:29:02.344Z,12.60
2022-11-28T05:31:29.285Z,13.68
2022-11-28T05:33:56.382Z,12.30
2022-11-28T05:36:22.945Z,15.20
2022-11-28T05:38:49.639Z,15.80
2022-11-28T05:41:27.913Z,13.00
2022-11-28T05:43:55.658Z,12.52
2022-11-28T05:46:22.317Z,12.80
2022-11-28T05:48:48.715Z,14.63
2022-11-28T05:51:15.087Z,12.18
2022-11-28T05:53:41.533Z,13.63
2022-11-28T05:56:12.704Z,15.40
2022-11-28T05:58:39.395Z,14.15
2022-11-28T06:01:11.129Z,15.25
2022-11-28T06:03:37.521Z,16.45
2022-11-28T06:06:04.303Z,14.32
2022-11-28T06:08:30.678Z,14.85
2022-11-28T06:10:59.805Z,13.27
2022-11-28T06:13:26.244Z,13.85
2022-11-28T06:15:52.609Z,13.10
2022-11-28T06:18:18.972Z,14.18
2022-11-28T06:20:45.337Z,15.10
2022-11-28T06:23:11.678Z,14.25
2022-11-28T06:25:38.074Z,15.35
2022-11-28T06:28:04.587Z,16.40
2022-11-28T06:30:30.939Z,16.83
2022-11-28T06:32:57.302Z,14.27
2022-11-28T06:35:23.694Z,14.05
2022-11-28T06:37:50.082Z,13.95
2022-11-28T06:40:16.645Z,14.80
2022-11-28T06:42:42.997Z,15.45
2022-11-28T06:45:09.854Z,14.98
2022-11-28T06:47:36.230Z,15.15
2022-11-28T06:50:02.650Z,15.90
2022-11-28T06:52:29.012Z,15.60
2022-11-28T06:54:55.355Z,15.70
2022-11-28T06:57:22.124Z,16.05
2022-11-28T06:59:49.332Z,14.52
2022-11-28T07:02:15.758Z,15.57
2022-11-28T07:04:42.145Z,14.63
2022-11-28T07:07:10.672Z,14.65
2022-11-28T07:09:40.333Z,14.27
2022-11-28T07:12:07.051Z,14.30
2022-11-28T07:14:33.815Z,15.40
2022-11-28T07:17:00.293Z,14.00
2022-11-28T07:19:26.985Z,13.68
2022-11-28T07:21:53.407Z,13.50
2022-11-28T07:24:20.009Z,14.90
2022-11-28T07:26:46.466Z,13.65
2022-11-28T07:29:15.798Z,14.07
2022-11-28T07:31:42.766Z,14.00
2022-11-28T07:34:10.851Z,14.80
2022-11-28T07:36:37.911Z,14.23
2022-11-28T07:39:08.312Z,14.35
2022-11-28T07:44:02.524Z,12.82
2022-11-28T07:46:31.053Z,12.73
2022-11-28T07:48:57.579Z,13.80
2022-11-28T07:51:29.642Z,13.68
2022-11-28T07:53:56.139Z,13.27
2022-11-28T07:56:31.916Z,13.77
2022-11-28T07:59:06.617Z,13.55
2022-11-28T08:01:35.976Z,13.55
2022-11-28T08:04:05.547Z,15.20
2022-11-28T08:06:36.638Z,12.68
2022-11-28T08:09:04.542Z,13.55
2022-11-28T08:11:31.676Z,14.40
2022-11-28T08:13:58.194Z,14.00
2022-11-28T08:16:27.483Z,13.48
2022-11-28T08:18:55.301Z,15.43
2022-11-28T08:21:26.122Z,13.63
2022-11-28T08:23:53.839Z,13.20
2022-11-28T08:26:28.949Z,13.95
2022-11-28T08:28:55.966Z,14.18
2022-11-28T08:31:29.060Z,14.32
2022-11-28T08:33:57.660Z,15.70
2022-11-28T08:36:24.095Z,14.63
2022-11-28T08:39:09.420Z,15.63
2022-11-28T08:41:37.324Z,15.18
2022-11-28T08:44:04.024Z,16.10
2022-11-28T08:46:30.607Z,15.57
2022-11-28T08:48:57.076Z,14.32
2022-11-28T08:51:24.015Z,17.58
2022-11-28T08:53:54.988Z,16.40
2022-11-28T08:56:24.672Z,14.85
2022-11-28T08:58:51.037Z,14.82
2022-11-28T09:01:23.553Z,17.35
2022-11-28T09:03:51.061Z,16.15
2022-11-28T09:06:18.617Z,12.10
2022-11-28T09:08:45.295Z,14.82
2022-11-28T09:11:14.172Z,14.32
2022-11-28T09:13:41.002Z,16.33
2022-11-28T09:16:07.915Z,14.63
2022-11-28T09:18:34.543Z,20.83
2022-11-28T09:21:03.978Z,13.50
2022-11-28T09:23:30.599Z,13.48
2022-11-28T09:25:57.534Z,15.02
2022-11-28T09:28:24.652Z,13.20
2022-11-28T09:30:59.853Z,15.27
2022-11-28T09:33:26.249Z,15.63
2022-11-28T09:35:52.597Z,15.45
2022-11-28T09:38:18.997Z,13.68
2022-11-28T09:40:45.442Z,14.10
2022-11-28T09:43:27.105Z,13.25
2022-11-28T09:45:54.601Z,15.00
2022-11-28T09:48:33.899Z,13.50
2022-11-28T09:51:19.205Z,14.60
2022-11-28T09:54:13.359Z,15.02
2022-11-28T09:56:39.943Z,14.30
2022-11-28T09:59:33.201Z,13.07
2022-11-28T10:02:23.351Z,13.50
2022-11-28T10:05:09.995Z,13.73
2022-11-28T10:08:01.425Z,16.05
2022-11-28T10:10:57.371Z,13.82
2022-11-28T10:14:05.901Z,13.80
2022-11-28T10:17:03.684Z,14.50
2022-11-28T10:19:53.843Z,11.13
2022-11-28T10:22:35.151Z,12.25
2022-11-28T10:25:11.040Z,12.15
2022-11-28T10:27:37.875Z,10.55
2022-11-28T10:30:06.910Z,14.98
2022-11-28T10:32:37.916Z,11.55
2022-11-28T10:35:28.544Z,11.05
2022-11-28T10:37:55.287Z,11.23
2022-11-28T10:41:02.043Z,11.88
2022-11-28T10:43:44.031Z,12.27
2022-11-28T10:46:39.822Z,11.98
2022-11-28T10:49:24.963Z,11.82
2022-11-28T10:51:51.288Z,11.35
2022-11-28T10:54:32.895Z,10.85
2022-11-28T10:57:22.256Z,12.23
2022-11-28T11:00:01.273Z,10.55
2022-11-28T11:02:40.003Z,10.63
2022-11-28T11:05:11.851Z,11.30
2022-11-28T11:07:38.321Z,12.40
2022-11-28T11:10:20.429Z,11.35
2022-11-28T11:12:48.087Z,11.43
2022-11-28T11:15:17.154Z,11.70
2022-11-28T11:17:43.743Z,11.18
2022-11-28T11:20:28.503Z,12.30
2022-11-28T11:23:00.549Z,10.93
2022-11-28T11:25:29.386Z,11.65
2022-11-28T11:28:02.215Z,12.05
2022-11-28T11:30:34.761Z,11.43
2022-11-28T11:33:03.495Z,11.75
2022-11-28T11:35:35.446Z,10.95
2022-11-28T11:38:28.884Z,11.32
2022-11-28T11:40:57.607Z,10.95
2022-11-28T11:43:33.017Z,13.45
2022-11-28T11:46:14.163Z,13.77
2022-11-28T11:49:27.043Z,11.45
2022-11-28T11:51:57.009Z,10.55
2022-11-28T11:54:23.367Z,10.73
2022-11-28T11:57:00.747Z,10.73
2022-11-28T11:59:45.834Z,11.75
2022-11-28T12:02:27.765Z,12.77
2022-11-28T12:05:09.818Z,12.93
2022-11-28T12:07:54.079Z,11.15
2022-11-28T12:10:24.219Z,11.48
2022-11-28T12:12:50.673Z,11.90
2022-11-28T12:15:46.483Z,11.05
2022-11-28T12:18:21.401Z,12.25
2022-11-28T12:21:14.041Z,11.23
2022-11-28T12:24:09.341Z,11.57
2022-11-28T12:26:42.152Z,11.60
2022-11-28T12:29:14.500Z,13.20
2022-11-28T12:31:56.077Z,11.23
2022-11-28T12:34:59.470Z,12.10
2022-11-28T12:38:09.802Z,11.77
2022-11-28T12:40:46.019Z,11.30
2022-11-28T12:46:12.706Z,13.05
2022-11-28T12:49:03.504Z,11.55
2022-11-28T12:52:27.329Z,13.32
2022-11-28T12:55:27.100Z,12.52
2022-11-28T12:58:24.299Z,13.00
2022-11-28T13:00:59.988Z,12.00
2022-11-28T13:03:55.140Z,13.27
2022-11-28T13:06:45.177Z,13.23
2022-11-28T13:09:17.575Z,13.30
2022-11-28T13:12:14.597Z,15.60
2022-11-28T13:15:16.467Z,13.85
2022-11-28T13:17:42.801Z,12.15
2022-11-28T13:20:23.727Z,12.43
2022-11-28T13:23:04.773Z,13.38
2022-11-28T13:25:41.650Z,13.00
2022-11-28T13:28:28.434Z,13.93
2022-11-28T13:31:05.714Z,13.45
2022-11-28T13:33:51.096Z,13.40
2022-11-28T13:39:13.289Z,13.20
2022-11-28T13:45:25.177Z,13.35
2022-11-28T13:47:58.443Z,12.75
2022-11-28T13:50:24.986Z,13.27
2022-11-28T13:53:08.127Z,12.70
2022-11-28T13:55:44.795Z,13.02
2022-11-28T13:58:31.476Z,13.07
2022-11-28T14:01:15.278Z,13.40
2022-11-28T14:04:04.412Z,14.23
2022-11-28T14:06:41.846Z,13.50
2022-11-28T14:09:24.472Z,12.85
2022-11-28T14:11:53.799Z,13.68
2022-11-28T14:14:57.851Z,12.75
2022-11-28T14:17:39.936Z,13.60
2022-11-28T14:20:34.811Z,12.70
2022-11-28T14:23:19.411Z,12.93
2022-11-28T14:25:48.601Z,14.50
2022-11-28T14:28:21.103Z,13.27
2022-11-28T14:30:48.781Z,13.73
2022-11-28T14:33:36.633Z,12.55
2022-11-28T14:36:23.800Z,12.40
2022-11-28T14:39:00.853Z,13.80
2022-11-28T14:41:27.250Z,13.10
2022-11-28T14:43:53.795Z,13.60
2022-11-28T14:46:23.271Z,13.57
2022-11-28T14:48:58.772Z,13.87
2022-11-28T14:51:44.114Z,14.88
2022-11-28T14:54:26.732Z,14.88
2022-11-28T14:56:59.517Z,15.15
2022-11-28T14:59:34.654Z,14.45
2022-11-28T15:02:22.205Z,15.68
2022-11-28T15:05:09.871Z,14.32
2022-11-28T15:07:55.241Z,15.48
2022-11-28T15:10:53.999Z,15.05
2022-11-28T15:13:44.776Z,16.65
2022-11-28T15:16:13.764Z,16.65
2022-11-28T15:18:48.322Z,16.80
2022-11-28T15:21:18.080Z,15.93
2022-11-28T15:23:46.640Z,27.10
2022-11-28T15:26:22.244Z,16.50
2022-11-28T15:28:48.829Z,18.98
2022-11-28T15:31:22.668Z,18.60
2022-11-28T15:33:50.654Z,19.02
2022-11-28T15:36:28.378Z,18.42
2022-11-28T15:38:55.993Z,19.42
2022-11-28T15:41:27.426Z,29.13
2022-11-28T15:43:57.033Z,30.38
2022-11-28T15:46:32.177Z,19.73
2022-11-28T15:48:59.256Z,26.13
2022-11-28T15:51:33.069Z,20.08
2022-11-28T15:54:00.420Z,20.55
2022-11-28T15:56:26.917Z,21.67
2022-11-28T15:58:54.531Z,24.08
2022-11-28T16:01:26.144Z,21.95
2022-11-28T16:03:57.115Z,22.88
2022-11-28T16:06:26.745Z,21.80
2022-11-28T16:08:56.193Z,24.70
2022-11-28T16:11:28.069Z,26.13
2022-11-28T16:13:57.190Z,26.77
2022-11-28T16:16:27.344Z,21.20
2022-11-28T16:19:05.487Z,22.48
2022-11-28T16:21:35.847Z,21.10
2022-11-28T16:24:03.484Z,22.08
2022-11-28T16:26:34.408Z,22.08
2022-11-28T16:29:12.247Z,23.00
2022-11-28T16:31:39.105Z,23.35
2022-11-28T16:34:06.142Z,21.98
2022-11-28T16:36:36.867Z,25.23
2022-11-28T16:39:14.686Z,23.63
2022-11-28T16:41:50.256Z,22.55
2022-11-28T16:44:19.887Z,23.55
2022-11-28T16:46:53.989Z,23.73
2022-11-28T16:49:31.776Z,23.65
2022-11-28T16:52:24.121Z,23.30
2022-11-28T16:54:54.813Z,22.85
2022-11-28T16:57:21.521Z,22.92
2022-11-28T16:59:51.783Z,22.50
2022-11-28T17:02:23.468Z,21.15
2022-11-28T17:04:51.956Z,23.30
2022-11-28T17:07:21.637Z,23.45
2022-11-28T17:09:49.317Z,22.10
2022-11-28T17:12:37.061Z,21.88
2022-11-28T17:15:03.740Z,23.85
2022-11-28T17:17:30.619Z,23.95
2022-11-28T17:19:57.044Z,23.50
2022-11-28T17:22:25.617Z,23.30
2022-11-28T17:25:00.527Z,22.10
2022-11-28T17:27:27.467Z,23.60
2022-11-28T17:29:53.849Z,23.80
2022-11-28T17:32:20.356Z,22.42
2022-11-28T17:34:46.925Z,22.85
2022-11-28T17:37:13.584Z,21.98
2022-11-28T17:39:59.983Z,24.00
2022-11-28T17:42:26.433Z,24.83
2022-11-28T17:44:52.812Z,21.65
2022-11-28T17:47:19.179Z,23.25
2022-11-28T17:49:46.578Z,25.08
2022-11-28T17:52:13.075Z,25.67
2022-11-28T17:54:39.434Z,26.63
2022-11-28T17:57:05.799Z,23.98
2022-11-28T17:59:34.240Z,25.13
2022-11-28T18:02:00.667Z,25.95
2022-11-28T18:04:27.130Z,26.98
2022-11-28T18:06:53.555Z,25.10
2022-11-28T18:09:20.001Z,24.40
2022-11-28T18:11:46.787Z,25.33
2022-11-28T18:14:13.382Z,23.95
2022-11-28T18:16:42.076Z,26.38
2022-11-28T18:19:08.519Z,25.73
2022-11-28T18:21:34.988Z,25.85
2022-11-28T18:24:01.981Z,26.58
2022-11-28T18:26:28.339Z,26.30
2022-11-28T18:28:55.032Z,30.42
2022-11-28T18:31:23.223Z,28.70
2022-11-28T18:33:49.803Z,30.10
2022-11-28T18:36:22.066Z,25.33
2022-11-28T18:38:49.053Z,26.38
2022-11-28T18:41:17.165Z,24.45
2022-11-28T18:43:44.095Z,24.98
2022-11-28T18:46:15.998Z,24.88
2022-11-28T18:48:44.085Z,24.67
2022-11-28T18:51:15.700Z,26.55
2022-11-28T18:53:43.120Z,27.92
2022-11-28T18:56:10.319Z,27.17
2022-11-28T18:58:38.809Z,27.73
2022-11-28T19:01:12.492Z,25.60
2022-11-28T19:03:39.640Z,27.85
2022-11-28T19:06:11.594Z,29.17
2022-11-28T19:08:38.863Z,28.60
2022-11-28T19:11:11.148Z,28.90
2022-11-28T19:13:38.135Z,34.95
2022-11-28T19:16:06.633Z,31.02
2022-11-28T19:18:33.801Z,27.40
2022-11-28T19:21:00.261Z,29.38
2022-11-28T19:23:26.712Z,32.05
2022-11-28T19:25:53.134Z,32.63
2022-11-28T19:28:20.879Z,30.02
2022-11-28T19:30:47.261Z,29.63
2022-11-28T19:33:13.722Z,29.23
2022-11-28T19:35:40.365Z,30.90
2022-11-28T19:38:06.763Z,27.40
2022-11-28T19:40:33.228Z,27.45
2022-11-28T19:42:59.654Z,31.40
2022-11-28T19:45:26.090Z,29.38
2022-11-28T19:47:52.744Z,28.85
2022-11-28T19:50:19.215Z,31.17
2022-11-28T19:52:45.595Z,30.13
2022-11-28T19:55:12.094Z,30.98
2022-11-28T19:57:39.339Z,30.02
2022-11-28T20:00:06.278Z,29.67
2022-11-28T20:02:32.875Z,31.30
2022-11-28T20:04:59.387Z,31.17
2022-11-28T20:07:27.342Z,30.95
2022-11-28T20:09:53.766Z,31.23
2022-11-28T20:12:20.146Z,28.35
2022-11-28T20:14:46.575Z,30.00
2022-11-28T20:17:12.954Z,31.65
2022-11-28T20:19:39.321Z,30.73
2022-11-28T20:22:05.664Z,31.15
2022-11-28T20:24:32.048Z,37.53
2022-11-28T20:26:58.503Z,39.28
2022-11-28T20:29:28.000Z,36.97
2022-11-28T20:31:54.586Z,35.63
2022-11-28T20:34:21.155Z,44.17
2022-11-28T20:36:51.746Z,37.65
2022-11-28T20:39:18.155Z,32.90
2022-11-28T20:41:44.567Z,41.53
2022-11-28T20:44:10.967Z,36.88
2022-11-28T20:46:38.183Z,33.53
2022-11-28T20:49:06.417Z,35.42
2022-11-28T20:51:34.767Z,65.82
2022-11-28T20:54:02.808Z,32.40
2022-11-28T20:56:31.738Z,120.63
2022-11-28T20:59:00.628Z,35.03
2022-11-28T21:01:30.225Z,34.90
2022-11-28T21:03:57.339Z,29.17
2022-11-28T21:06:24.152Z,31.52
2022-11-28T21:08:50.781Z,30.38
2022-11-28T21:11:36.989Z,38.05
2022-11-28T21:14:06.558Z,31.55
2022-11-28T21:16:33.991Z,32.30
2022-11-28T21:19:07.624Z,30.95
2022-11-28T21:21:35.161Z,30.25
2022-11-28T21:24:07.684Z,31.88
2022-11-28T21:26:40.513Z,30.52
2022-11-28T21:29:11.623Z,31.75
2022-11-28T21:31:42.847Z,29.60
2022-11-28T21:34:12.979Z,32.22
2022-11-28T21:36:39.710Z,32.40
2022-11-28T21:39:06.207Z,32.80
2022-11-28T21:41:33.146Z,30.15
2022-11-28T21:44:00.231Z,31.10
2022-11-28T21:46:27.299Z,31.08
2022-11-28T21:48:54.008Z,30.10
2022-11-28T21:51:22.597Z,31.10
2022-11-28T21:53:49.311Z,36.17
2022-11-28T21:56:16.243Z,34.25
2022-11-28T21:58:42.781Z,30.40
2022-11-28T22:01:12.142Z,29.92
2022-11-28T22:03:39.534Z,31.58
2022-11-28T22:06:07.445Z,31.15
2022-11-28T22:08:34.817Z,33.25
2022-11-28T22:11:08.351Z,30.67
2022-11-28T22:13:35.429Z,31.38
2022-11-28T22:16:02.026Z,35.83
2022-11-28T22:18:29.679Z,30.30
2022-11-28T22:21:22.407Z,32.17
2022-11-28T22:23:51.195Z,31.42
2022-11-28T22:26:18.625Z,31.95
2022-11-28T22:28:50.426Z,32.90
2022-11-28T22:31:19.918Z,31.95
2022-11-28T22:33:48.576Z,33.80
2022-11-28T22:36:21.544Z,32.60
2022-11-28T22:38:49.709Z,31.63
2022-11-28T22:41:27.886Z,33.53
2022-11-28T22:43:57.008Z,34.15
2022-11-28T22:46:23.561Z,36.63
2022-11-28T22:48:51.747Z,32.80
2022-11-28T22:51:22.295Z,33.20
2022-11-28T22:56:18.989Z,34.20
2022-11-28T22:58:45.887Z,34.70
2022-11-28T23:01:21.417Z,36.38
2022-11-28T23:03:48.674Z,34.42
2022-11-28T23:06:18.395Z,34.15
2022-11-28T23:08:45.520Z,36.33
2022-11-28T23:11:15.344Z,39.03
2022-11-28T23:13:42.938Z,32.90
2022-11-28T23:16:16.250Z,37.35
2022-11-28T23:18:44.236Z,36.33
2022-11-28T23:21:11.255Z,35.83
2022-11-28T23:23:37.735Z,36.42
2022-11-28T23:26:12.803Z,40.72
2022-11-28T23:28:39.839Z,41.35
2022-11-28T23:31:07.693Z,39.95
2022-11-28T23:33:34.848Z,36.65
2022-11-28T23:36:01.358Z,40.45
2022-11-28T23:38:27.759Z,43.05
2022-11-28T23:40:56.007Z,40.15
2022-11-28T23:43:22.865Z,40.10
2022-11-28T23:45:49.332Z,41.53
2022-11-28T23:48:16.395Z,36.92
2022-11-28T23:50:42.896Z,39.22
2022-11-28T23:53:09.325Z,38.08
2022-11-28T23:55:35.808Z,39.50
2022-11-28T23:58:02.369Z,41.67
